TimeCST,TemperatureF,Dew PointF,Humidity,Sea Level PressureIn,VisibilityMPH,Wind Direction,Wind SpeedMPH,Gust SpeedMPH,PrecipitationIn,Events,Conditions,WindDirDegrees,DateUTC
12:52 AM,8.1,-4.0,58,30.36,10.0,Calm,Calm,-,N/A,,Overcast,0,2013-01-23 06:52:00
1:52 AM,9.0,-4.0,56,30.35,10.0,West,3.5,-,N/A,,Overcast,280,2013-01-23 07:52:00
2:52 AM,10.0,-2.9,56,30.35,10.0,WSW,3.5,-,N/A,,Overcast,240,2013-01-23 08:52:00
3:52 AM,10.9,-4.0,51,30.34,10.0,WSW,6.9,-,N/A,,Overcast,250,2013-01-23 09:52:00
4:52 AM,10.9,-2.9,54,30.32,10.0,West,6.9,-,N/A,,Overcast,260,2013-01-23 10:52:00
5:52 AM,12.0,-2.0,53,30.32,10.0,WSW,5.8,-,N/A,,Overcast,240,2013-01-23 11:52:00
6:52 AM,12.0,-2.0,53,30.32,10.0,West,6.9,-,N/A,,Overcast,280,2013-01-23 12:52:00
7:52 AM,12.0,-0.0,59,30.30,9.0,West,6.9,-,N/A,,Overcast,270,2013-01-23 13:52:00
8:52 AM,12.9,5.0,71,30.30,2.5,WSW,6.9,-,0.00,Snow,Light Snow,240,2013-01-23 14:52:00
9:52 AM,14.0,6.1,71,30.30,2.5,SW,8.1,-,0.00,Snow,Light Snow,220,2013-01-23 15:52:00
10:52 AM,15.1,5.0,64,30.28,5.0,WSW,6.9,-,0.00,,Haze,240,2013-01-23 16:52:00
11:52 AM,16.0,6.1,65,30.24,8.0,SW,8.1,-,N/A,,Overcast,230,2013-01-23 17:52:00
12:52 PM,17.1,8.1,68,30.19,6.0,SSW,9.2,-,N/A,,Haze,210,2013-01-23 18:52:00
1:48 PM,17.6,8.6,68,30.12,4.0,SW,10.4,-,0.00,Snow,Light Snow,230,2013-01-23 19:48:00
1:52 PM,17.1,9.0,71,30.16,3.0,WSW,8.1,-,0.00,Snow,Light Snow,240,2013-01-23 19:52:00
2:03 PM,17.6,10.4,73,30.12,4.0,SSW,8.1,-,0.00,Snow,Light Snow,210,2013-01-23 20:03:00
2:52 PM,19.0,10.9,71,30.15,3.0,WSW,9.2,-,0.00,Snow,Light Snow,240,2013-01-23 20:52:00
3:52 PM,19.0,12.0,74,30.15,2.0,WSW,11.5,-,0.00,Snow,Light Snow,240,2013-01-23 21:52:00
4:33 PM,19.4,12.2,74,30.11,5.0,West,10.4,16.1,0.00,Snow,Light Snow,270,2013-01-23 22:33:00
4:52 PM,19.0,10.0,68,30.16,10.0,West,12.7,21.9,0.00,,Overcast,270,2013-01-23 22:52:00
5:30 PM,19.4,10.4,68,30.12,6.0,West,11.5,-,0.00,Snow,Light Snow,280,2013-01-23 23:30:00
5:52 PM,19.0,12.0,74,30.17,6.0,West,8.1,-,0.00,Snow,Light Snow,280,2013-01-23 23:52:00
6:52 PM,19.0,10.9,71,30.19,9.0,WNW,6.9,-,0.00,,Overcast,290,2013-01-24 00:52:00
7:52 PM,18.0,10.9,74,30.21,10.0,NW,9.2,-,N/A,,Mostly Cloudy,310,2013-01-24 01:52:00
8:25 PM,17.6,12.2,79,30.19,1.8,NNW,17.3,31.1,0.00,Snow,Light Snow,330,2013-01-24 02:25:00
8:32 PM,17.6,10.4,73,30.19,3.0,NNW,15.0,27.6,0.00,Snow,Light Snow,340,2013-01-24 02:32:00
8:52 PM,18.0,7.0,62,30.25,10.0,NNW,16.1,25.3,0.00,,Overcast,340,2013-01-24 02:52:00
9:52 PM,15.1,3.9,61,30.30,9.0,NNW,15.0,26.5,0.00,,Mostly Cloudy,340,2013-01-24 03:52:00
10:52 PM,12.0,1.9,64,30.34,10.0,North,12.7,19.6,N/A,,Clear,350,2013-01-24 04:52:00
11:52 PM,10.9,1.0,64,30.37,10.0,NNW,12.7,24.2,N/A,,Clear,340,2013-01-24 05:52:00